CDT,Max TemperatureF,Mean TemperatureF,Min TemperatureF,Max Dew PointF,MeanDew PointF,Min DewpointF,Max Humidity, Mean Humidity, Min Humidity, Max Sea Level PressureIn, Mean Sea Level PressureIn, Min Sea Level PressureIn, Max VisibilityMiles, Mean VisibilityMiles, Min VisibilityMiles, Max Wind SpeedMPH, Mean Wind SpeedMPH, Max Gust SpeedMPH,PrecipitationIn, CloudCover, Events, WindDirDegrees
2013-9-1,90,83,76,74,72,70,88,70,52,29.90,29.83,29.79,10,10,8,17,5,23,0.00,1,,191
2013-9-2,94,84,74,74,71,65,94,70,46,29.92,29.87,29.83,10,9,5,13,3,17,T,1,Rain-Thunderstorm,346
2013-9-3,90,76,62,64,60,55,84,58,32,30.04,29.99,29.92,10,10,10,13,6,17,0.00,0,,26
2013-9-4,89,75,61,66,61,56,90,64,38,30.14,30.09,30.03,10,10,10,12,4,18,0.00,0,,55
2013-9-5,89,75,60,65,62,59,93,67,40,30.19,30.14,30.10,10,10,10,14,5,20,0.00,0,,50
2013-9-6,93,80,67,69,66,63,90,66,41,30.16,30.09,30.03,10,10,10,9,3,13,0.00,0,,58
2013-9-7,95,80,65,68,66,62,93,64,34,30.07,30.01,29.95,10,10,10,12,3,17,0.00,0,,196
2013-9-8,100,85,69,75,69,66,90,63,35,29.97,29.93,29.88,10,10,6,10,2,15,0.00,0,,278
2013-9-9,99,86,72,73,71,67,94,66,38,30.00,29.96,29.92,10,9,6,12,3,17,0.00,0,,199
2013-9-10,101,87,73,72,68,64,87,59,31,30.12,30.07,30.00,10,9,7,9,2,24,0.00,0,,161
2013-9-11,96,85,73,78,72,69,88,67,46,30.14,30.09,30.05,10,8,2,25,2,29,0.24,1,Rain-Thunderstorm,106
2013-9-12,96,84,72,74,71,69,93,68,43,30.06,30.01,29.92,10,7,1,10,3,18,0.00,0,Thunderstorm,347
2013-9-13,85,74,62,69,55,52,76,55,34,30.05,30.01,29.98,10,10,10,17,9,24,0.00,1,,29
2013-9-14,79,67,54,54,50,45,86,58,30,30.13,30.07,30.03,10,10,10,14,6,20,0.00,0,,47
2013-9-15,86,68,50,57,52,49,96,62,27,30.11,30.07,30.04,10,10,10,12,2,17,0.00,0,,210
2013-9-16,87,74,61,67,61,55,84,64,43,30.17,30.13,30.07,10,10,10,15,7,20,0.00,0,,38
2013-9-17,92,80,67,67,64,62,84,63,41,30.17,30.11,30.04,10,10,6,12,6,16,0.00,0,,55
2013-9-18,93,81,68,71,68,65,90,67,44,30.09,30.03,29.98,10,9,3,14,6,18,0.00,1,Thunderstorm,158
2013-9-19,94,83,71,72,69,65,90,67,44,30.06,30.00,29.92,10,9,6,18,8,24,0.00,0,,187
2013-9-20,79,75,70,72,69,67,93,80,67,29.98,29.91,29.84,10,8,1,15,5,18,0.95,7,Rain,308
2013-9-21,80,71,61,66,57,51,84,62,39,29.95,29.89,29.85,10,10,10,16,7,22,0.00,2,,358
2013-9-22,80,69,57,53,52,50,80,58,36,29.99,29.93,29.88,10,10,10,15,6,21,0.00,0,,39
2013-9-23,84,70,56,61,56,52,90,65,39,29.97,29.92,29.87,10,10,10,13,6,20,0.00,0,,71
2013-9-24,86,75,63,70,66,59,90,71,51,29.90,29.84,29.78,10,10,10,12,5,16,0.00,4,,110
2013-9-25,86,76,66,70,65,61,93,69,44,29.85,29.79,29.77,10,8,1,12,3,16,0.00,3,,350
2013-9-26,89,78,66,68,64,62,90,67,43,29.98,29.93,29.85,10,10,7,12,5,14,0.00,0,,64
2013-9-27,89,77,65,67,63,58,93,65,36,30.08,30.02,29.98,10,10,9,12,4,16,0.00,1,,95
2013-9-28,88,75,61,63,62,59,90,67,43,30.10,30.03,29.98,10,10,10,18,8,26,0.00,2,,176
2013-9-29,74,72,69,68,65,60,97,81,64,30.03,29.98,29.95,10,7,2,13,4,22,0.09,8,Rain,134
2013-9-30,78,73,68,68,67,66,93,84,74,29.98,29.94,29.90,10,6,0,10,6,14,T,7,Fog,98